Time;durP1;ratioP1;P1;durP2;ratioP2;P2;SDS_P1;SDS_P2;PMS_P1;PMS_P2;Temp;Humidity;BMP_temperature;BMP_pressure;BME280_temperature;BME280_humidity;BME280_pressure;Samples;Min_cycle;Max_cycle;Signal;HPM_P1;HPM_P2
2023/12/21 00:00:20;;;;;;;;;;;;;;;19.62;44.88;96167.78;617739;230;63231;-72
2023/12/21 00:02:47;;;;;;;;;;;;;;;19.60;44.87;96167.27;617658;230;62931;-73
2023/12/21 00:05:15;;;;;;;;;;;;;;;19.57;44.89;96167.83;617652;230;62419;-72
2023/12/21 00:07:42;;;;;;;;;;;;;;;19.59;44.91;96170.20;617677;230;62995;-72
2023/12/21 00:10:10;;;;;;;;;;;;;;;19.60;44.88;96177.92;617678;230;65317;-72
2023/12/21 00:12:37;;;;;;;;;;;;;;;19.61;44.91;96178.72;617744;230;64636;-72
2023/12/21 00:15:05;;;;;;;;;;;;;;;19.61;44.91;96192.04;617717;230;64965;-72
2023/12/21 00:17:33;;;;;;;;;;;;;;;19.62;44.86;96194.44;617680;230;64807;-72
2023/12/21 00:20:00;;;;;;;;;;;;;;;19.61;44.90;96189.37;617699;230;63395;-73
2023/12/21 00:22:27;;;;;;;;;;;;;;;19.61;44.88;96195.50;617661;230;64965;-72
2023/12/21 00:24:55;;;;;;;;;;;;;;;19.58;44.88;96192.61;617742;230;64838;-72
2023/12/21 00:27:22;;;;;;;;;;;;;;;19.59;44.86;96186.19;617692;230;64553;-72
2023/12/21 00:29:50;;;;;;;;;;;;;;;19.58;44.85;96190.73;617648;230;64923;-72
2023/12/21 00:32:17;;;;;;;;;;;;;;;19.62;44.89;96202.44;617698;230;64752;-72
2023/12/21 00:34:49;;;;;;;;;;;;;;;19.60;44.84;96193.92;617678;230;64601;-72
2023/12/21 00:37:14;;;;;;;;;;;;;;;19.58;44.85;96193.39;617652;228;65347;-72
2023/12/21 00:39:42;;;;;;;;;;;;;;;19.60;44.85;96201.91;617689;230;64764;-73
2023/12/21 00:42:09;;;;;;;;;;;;;;;19.59;44.85;96197.67;617667;230;64726;-68
2023/12/21 00:44:37;;;;;;;;;;;;;;;19.59;44.85;96195.00;617652;230;65583;-68
2023/12/21 00:47:04;;;;;;;;;;;;;;;19.60;44.86;96201.12;617655;230;65549;-68
2023/12/21 00:49:32;;;;;;;;;;;;;;;19.59;44.87;96211.00;617662;230;62458;-68
2023/12/21 00:52:00;;;;;;;;;;;;;;;19.61;44.86;96210.70;617709;230;63005;-69
2023/12/21 00:54:27;;;;;;;;;;;;;;;19.57;44.86;96205.14;617656;230;62845;-68
2023/12/21 00:56:55;;;;;;;;;;;;;;;19.59;44.85;96205.67;617632;230;62472;-68
2023/12/21 00:59:22;;;;;;;;;;;;;;;19.59;44.83;96202.18;619112;229;65231;-69
2023/12/21 01:01:50;;;;;;;;;;;;;;;19.59;44.84;96220.84;619892;229;64966;-68
2023/12/21 01:04:17;;;;;;;;;;;;;;;19.59;44.85;96211.00;619945;229;64750;-68
2023/12/21 01:06:45;;;;;;;;;;;;;;;19.60;44.86;96219.78;619894;229;64942;-68
2023/12/21 01:09:12;;;;;;;;;;;;;;;19.60;44.84;96211.78;619883;229;65283;-69
2023/12/21 01:11:40;;;;;;;;;;;;;;;19.59;44.83;96208.33;619830;229;64389;-68
2023/12/21 01:14:07;;;;;;;;;;;;;;;19.60;44.82;96214.45;619892;229;65665;-68
2023/12/21 01:16:35;;;;;;;;;;;;;;;19.60;44.83;96209.91;619933;229;65002;-68
2023/12/21 01:19:02;;;;;;;;;;;;;;;19.60;44.82;96225.91;619883;229;64638;-69
2023/12/21 01:21:30;;;;;;;;;;;;;;;19.59;44.82;96216.33;619887;229;65654;-69
2023/12/21 01:23:58;;;;;;;;;;;;;;;19.59;44.82;96218.99;619824;229;66090;-68
2023/12/21 01:26:25;;;;;;;;;;;;;;;19.59;44.83;96208.33;619892;229;64737;-68
2023/12/21 01:28:53;;;;;;;;;;;;;;;19.58;44.83;96222.71;619946;229;63917;-69
2023/12/21 01:31:21;;;;;;;;;;;;;;;19.58;44.80;96233.38;619890;229;64838;-68
2023/12/21 01:33:48;;;;;;;;;;;;;;;19.59;44.76;96223.50;619873;229;64556;-68
2023/12/21 01:36:15;;;;;;;;;;;;;;;19.59;44.79;96226.98;619848;229;65429;-68
2023/12/21 01:38:43;;;;;;;;;;;;;;;19.60;44.79;96231.23;619850;229;65316;-68
2023/12/21 01:41:11;;;;;;;;;;;;;;;19.59;44.79;96244.83;619929;229;62392;-68
2023/12/21 01:43:38;;;;;;;;;;;;;;;19.56;44.80;96240.88;619899;229;63012;-68
2023/12/21 01:46:05;;;;;;;;;;;;;;;19.59;44.81;96242.16;619899;229;62854;-68
2023/12/21 01:48:33;;;;;;;;;;;;;;;19.58;44.81;96252.03;619887;229;62457;-69
2023/12/21 01:51:01;;;;;;;;;;;;;;;19.59;44.79;96250.97;619929;229;65217;-68
2023/12/21 01:53:30;;;;;;;;;;;;;;;19.59;44.78;96250.97;619960;229;62565;-68
2023/12/21 01:55:58;;;;;;;;;;;;;;;19.59;44.80;96237.65;619898;229;62452;-68
2023/12/21 01:58:26;;;;;;;;;;;;;;;19.58;44.81;96243.25;619867;229;65486;-69
2023/12/21 02:00:55;;;;;;;;;;;;;;;19.57;44.78;96234.46;619865;229;65328;-68
2023/12/21 02:03:22;;;;;;;;;;;;;;;19.56;44.78;96235.55;619877;228;64591;-68
2023/12/21 02:05:50;;;;;;;;;;;;;;;19.58;44.77;96238.70;619890;229;65486;-68
2023/12/21 02:08:17;;;;;;;;;;;;;;;19.58;44.75;96228.05;619960;229;65043;-68
2023/12/21 02:10:46;;;;;;;;;;;;;;;19.55;44.75;96228.61;619904;229;62470;-68
2023/12/21 02:13:13;;;;;;;;;;;;;;;19.58;44.76;96221.92;619910;229;65511;-69
2023/12/21 02:15:41;;;;;;;;;;;;;;;19.58;44.73;96219.26;619919;229;64999;-68
2023/12/21 02:18:10;;;;;;;;;;;;;;;19.54;44.73;96213.70;619890;229;64665;-68
2023/12/21 02:20:39;;;;;;;;;;;;;;;19.57;44.71;96215.80;619947;229;64890;-68
2023/12/21 02:23:07;;;;;;;;;;;;;;;19.59;44.74;96210.17;619915;229;64854;-68
2023/12/21 02:25:35;;;;;;;;;;;;;;;19.55;44.74;96207.28;619858;229;62676;-68
2023/12/21 02:28:03;;;;;;;;;;;;;;;19.56;44.72;96208.89;619910;229;63464;-69
2023/12/21 02:30:30;;;;;;;;;;;;;;;19.56;44.72;96208.89;619891;229;62969;-68
2023/12/21 02:32:58;;;;;;;;;;;;;;;19.55;44.72;96201.17;619929;229;62541;-68
2023/12/21 02:35:25;;;;;;;;;;;;;;;19.57;44.73;96199.81;619903;229;63068;-69
2023/12/21 02:37:52;;;;;;;;;;;;;;;19.55;44.72;96204.63;619891;229;62845;-68
2023/12/21 02:40:20;;;;;;;;;;;;;;;19.56;44.71;96203.56;619921;229;62465;-68
2023/12/21 02:42:48;;;;;;;;;;;;;;;19.54;44.73;96197.71;619917;229;65480;-68
2023/12/21 02:45:15;;;;;;;;;;;;;;;19.56;44.70;96186.75;619916;229;65070;-68
2023/12/21 02:47:43;;;;;;;;;;;;;;;19.57;44.71;96189.16;619915;229;62458;-68
2023/12/21 02:50:10;;;;;;;;;;;;;;;19.56;44.68;96184.91;619853;229;65254;-68
2023/12/21 02:52:38;;;;;;;;;;;;;;;19.58;44.70;96196.06;619892;229;65037;-68
2023/12/21 02:55:05;;;;;;;;;;;;;;;19.57;44.68;96191.81;619930;229;64637;-68
2023/12/21 02:57:33;;;;;;;;;;;;;;;19.56;44.70;96187.58;619921;229;65527;-68
2023/12/21 03:00:00;;;;;;;;;;;;;;;19.54;44.69;96189.72;617774;229;65037;-68
2023/12/21 03:02:28;;;;;;;;;;;;;;;19.57;44.67;96191.81;617700;230;62490;-68
2023/12/21 03:04:55;;;;;;;;;;;;;;;19.54;44.70;96187.05;617655;230;62997;-68
2023/12/21 03:07:23;;;;;;;;;;;;;;;19.57;44.65;96188.36;617711;230;62783;-68
2023/12/21 03:09:50;;;;;;;;;;;;;;;19.54;44.65;96189.72;617736;230;63507;-68
2023/12/21 03:12:18;;;;;;;;;;;;;;;19.57;44.67;96191.03;617659;230;65426;-68
2023/12/21 03:14:45;;;;;;;;;;;;;;;19.53;44.70;96190.77;617663;230;63671;-68
2023/12/21 03:17:13;;;;;;;;;;;;;;;19.57;44.65;96193.69;617684;230;62419;-72
2023/12/21 03:19:41;;;;;;;;;;;;;;;19.55;44.65;96180.64;617651;230;62709;-68
2023/12/21 03:22:08;;;;;;;;;;;;;;;19.57;44.66;96199.81;617688;230;62880;-68
2023/12/21 03:24:36;;;;;;;;;;;;;;;19.52;44.64;96170.55;617703;230;62390;-69
2023/12/21 03:27:03;;;;;;;;;;;;;;;19.56;44.65;96181.42;617655;230;62976;-68
2023/12/21 03:29:31;;;;;;;;;;;;;;;19.56;44.62;96184.91;617657;230;62964;-68
2023/12/21 03:31:58;;;;;;;;;;;;;;;19.57;44.63;96189.16;617703;230;64334;-69
2023/12/21 03:34:26;;;;;;;;;;;;;;;19.55;44.60;96188.63;617679;230;62717;-68
2023/12/21 03:36:53;;;;;;;;;;;;;;;19.54;44.61;96184.39;617726;230;63046;-68
2023/12/21 03:39:21;;;;;;;;;;;;;;;19.57;44.61;96194.48;617648;230;62492;-68
2023/12/21 03:41:48;;;;;;;;;;;;;;;19.56;44.61;96194.75;617645;230;63240;-68
2023/12/21 03:44:15;;;;;;;;;;;;;;;19.55;44.60;96190.51;617691;230;64822;-69
2023/12/21 03:46:43;;;;;;;;;;;;;;;19.56;44.62;96197.42;617650;227;64614;-68
2023/12/21 03:49:10;;;;;;;;;;;;;;;19.56;44.60;96210.74;617702;230;65559;-69
2023/12/21 03:51:38;;;;;;;;;;;;;;;19.56;44.60;96208.08;617636;227;63057;-68
2023/12/21 03:54:05;;;;;;;;;;;;;;;19.55;44.58;96217.95;617638;230;64629;-68
2023/12/21 03:56:33;;;;;;;;;;;;;;;19.54;44.63;96203.05;617696;230;65524;-68
2023/12/21 03:59:01;;;;;;;;;;;;;;;19.55;44.61;96209.95;617638;229;65151;-68
2023/12/21 04:01:32;;;;;;;;;;;;;;;19.55;44.61;96220.61;617707;230;64796;-68
2023/12/21 04:03:59;;;;;;;;;;;;;;;19.55;44.62;96223.28;617639;230;63930;-69
2023/12/21 04:06:27;;;;;;;;;;;;;;;19.54;44.62;96216.38;617660;230;64848;-68
2023/12/21 04:08:54;;;;;;;;;;;;;;;19.54;44.61;96226.23;617633;230;64565;-68
2023/12/21 04:11:22;;;;;;;;;;;;;;;19.56;44.58;96229.40;617683;230;65529;-68
2023/12/21 04:13:49;;;;;;;;;;;;;;;19.55;44.60;96239.27;617684;230;65066;-68
2023/12/21 04:16:17;;;;;;;;;;;;;;;19.55;44.62;96243.81;617651;229;64559;-69
2023/12/21 04:18:44;;;;;;;;;;;;;;;19.54;44.60;96243.02;617687;230;63064;-68
2023/12/21 04:21:12;;;;;;;;;;;;;;;19.54;44.61;96243.02;617670;230;63266;-68
2023/12/21 04:23:39;;;;;;;;;;;;;;;19.55;44.58;96244.59;617447;230;62423;-68
2023/12/21 04:26:07;;;;;;;;;;;;;;;19.55;44.58;96247.27;617513;230;62742;-68
2023/12/21 04:28:34;;;;;;;;;;;;;;;19.53;44.57;96230.75;617453;230;65048;-68
2023/12/21 04:31:02;;;;;;;;;;;;;;;19.53;44.54;96246.74;617450;230;64597;-68
2023/12/21 04:33:29;;;;;;;;;;;;;;;19.52;44.57;96240.62;617464;230;62819;-68
2023/12/21 04:35:57;;;;;;;;;;;;;;;19.55;44.56;96235.81;617374;230;64859;-68
2023/12/21 04:38:24;;;;;;;;;;;;;;;19.54;44.55;96240.36;617520;230;64491;-69
2023/12/21 04:40:52;;;;;;;;;;;;;;;19.51;44.54;96233.71;617480;230;64942;-69
2023/12/21 04:43:19;;;;;;;;;;;;;;;19.51;44.54;96239.04;617438;230;65234;-68
2023/12/21 04:45:47;;;;;;;;;;;;;;;19.52;44.56;96242.50;617432;230;64494;-68
2023/12/21 04:48:14;;;;;;;;;;;;;;;19.54;44.56;96242.23;617384;230;65004;-68
2023/12/21 04:50:41;;;;;;;;;;;;;;;19.52;44.56;96247.83;617421;230;62999;-68
2023/12/21 04:53:09;;;;;;;;;;;;;;;19.54;44.55;96255.55;617374;227;62546;-68
2023/12/21 04:55:37;;;;;;;;;;;;;;;19.51;44.56;96254.24;617656;230;63235;-68
2023/12/21 04:58:04;;;;;;;;;;;;;;;19.52;44.53;96253.95;617628;229;65029;-68
2023/12/21 05:00:32;;;;;;;;;;;;;;;19.53;44.56;96260.06;617656;230;65552;-69
2023/12/21 05:02:59;;;;;;;;;;;;;;;19.53;44.57;96268.06;617622;230;65243;-68
2023/12/21 05:05:27;;;;;;;;;;;;;;;19.54;44.57;96268.88;617707;230;65052;-68
2023/12/21 05:07:55;;;;;;;;;;;;;;;19.54;44.54;96266.22;617659;230;64560;-69
2023/12/21 05:10:23;;;;;;;;;;;;;;;19.53;44.53;96270.73;617674;230;63034;-68
2023/12/21 05:12:50;;;;;;;;;;;;;;;19.50;44.53;96273.95;617645;230;65061;-68
2023/12/21 05:15:18;;;;;;;;;;;;;;;19.53;44.55;96284.05;617614;229;64665;-68
2023/12/21 05:17:46;;;;;;;;;;;;;;;19.52;44.50;96287.80;617721;230;65467;-69
2023/12/21 05:20:13;;;;;;;;;;;;;;;19.52;44.53;96285.13;617691;230;63775;-68
2023/12/21 05:22:42;;;;;;;;;;;;;;;19.52;44.54;96293.92;617689;230;64432;-68
2023/12/21 05:25:09;;;;;;;;;;;;;;;19.51;44.54;96291.55;617694;230;65520;-68
2023/12/21 05:27:37;;;;;;;;;;;;;;;19.52;44.51;96293.12;617674;230;65027;-68
2023/12/21 05:30:05;;;;;;;;;;;;;;;19.52;44.53;96288.59;617702;230;62541;-68
2023/12/21 05:32:32;;;;;;;;;;;;;;;19.52;44.50;96293.92;617678;230;63080;-68
2023/12/21 05:35:00;;;;;;;;;;;;;;;19.52;44.53;96306.45;617699;230;63538;-68
2023/12/21 05:37:28;;;;;;;;;;;;;;;19.50;44.50;96300.60;617694;229;62434;-68
2023/12/21 05:39:55;;;;;;;;;;;;;;;19.51;44.54;96303.00;617670;230;63196;-68
2023/12/21 05:42:23;;;;;;;;;;;;;;;19.52;44.49;96293.12;617695;230;65535;-68
2023/12/21 05:44:50;;;;;;;;;;;;;;;19.49;44.52;96291.02;617678;230;64653;-68
2023/12/21 05:47:18;;;;;;;;;;;;;;;19.51;44.49;96295.00;617650;230;65560;-68
2023/12/21 05:49:45;;;;;;;;;;;;;;;19.53;44.53;96294.71;617683;229;65023;-68
2023/12/21 05:52:13;;;;;;;;;;;;;;;19.51;44.51;96288.89;617662;230;64586;-68
2023/12/21 05:54:40;;;;;;;;;;;;;;;19.51;44.51;96291.55;617738;230;65492;-68
2023/12/21 05:57:15;;;;;;;;;;;;;;;19.51;44.54;96287.02;617701;230;65274;-68
2023/12/21 05:59:39;;;;;;;;;;;;;;;19.51;44.54;96291.55;617337;229;63324;-68
2023/12/21 06:02:06;;;;;;;;;;;;;;;19.50;44.53;96290.73;617695;230;62884;-68
2023/12/21 06:04:34;;;;;;;;;;;;;;;19.51;44.56;96291.55;617692;230;65066;-69
2023/12/21 06:07:02;;;;;;;;;;;;;;;19.50;44.58;96293.39;617683;230;62488;-68
2023/12/21 06:09:29;;;;;;;;;;;;;;;19.50;44.59;96296.06;617693;230;65436;-68
2023/12/21 06:11:56;;;;;;;;;;;;;;;19.50;44.58;96298.73;617459;230;62951;-68
2023/12/21 06:14:24;;;;;;;;;;;;;;;19.50;44.57;96297.94;617466;230;62495;-68
2023/12/21 06:16:51;;;;;;;;;;;;;;;19.49;44.57;96305.14;617486;230;63069;-68
2023/12/21 06:19:19;;;;;;;;;;;;;;;19.50;44.58;96298.73;617459;230;62884;-69
2023/12/21 06:21:46;;;;;;;;;;;;;;;19.50;44.60;96300.60;617513;230;62447;-68
2023/12/21 06:24:14;;;;;;;;;;;;;;;19.50;44.59;96300.60;617440;230;65429;-68
2023/12/21 06:26:42;;;;;;;;;;;;;;;19.49;44.56;96299.81;617482;229;65025;-68
2023/12/21 06:29:10;;;;;;;;;;;;;;;19.49;44.55;96294.48;617478;230;62497;-68
2023/12/21 06:31:37;;;;;;;;;;;;;;;19.50;44.56;96308.59;617421;230;65310;-68
2023/12/21 06:34:05;;;;;;;;;;;;;;;19.51;44.58;96302.21;617539;229;62930;-68
2023/12/21 06:36:32;;;;;;;;;;;;;;;19.51;44.58;96299.55;617391;230;62444;-68
2023/12/21 06:39:00;;;;;;;;;;;;;;;19.48;44.58;96300.89;617481;230;63069;-69
2023/12/21 06:41:28;;;;;;;;;;;;;;;19.47;44.58;96303.83;617482;230;62904;-68
2023/12/21 06:43:56;;;;;;;;;;;;;;;19.51;44.58;96310.20;617438;230;64607;-68
2023/12/21 06:46:24;;;;;;;;;;;;;;;19.49;44.59;96307.80;619377;227;65453;-68
2023/12/21 06:48:51;;;;;;;;;;;;;;;19.49;44.59;96312.34;622536;227;64732;-68
2023/12/21 06:51:19;;;;;;;;;;;;;;;19.49;44.58;96321.13;624534;227;64602;-68
2023/12/21 06:53:46;;;;;;;;;;;;;;;19.48;44.57;96311.55;624528;227;65335;-68
2023/12/21 06:56:13;;;;;;;;;;;;;;;19.47;44.59;96309.95;624537;227;63508;-68
2023/12/21 06:58:41;;;;;;;;;;;;;;;19.47;44.58;96307.28;625444;225;64749;-68
2023/12/21 07:01:10;;;;;;;;;;;;;;;19.49;44.58;96307.02;626810;226;65424;-68
2023/12/21 07:03:37;;;;;;;;;;;;;;;19.49;44.56;96312.34;626704;226;62918;-69
2023/12/21 07:06:05;;;;;;;;;;;;;;;19.49;44.54;96312.34;626789;226;63400;-69
2023/12/21 07:08:32;;;;;;;;;;;;;;;19.50;44.57;96322.71;626768;226;63053;-67
2023/12/21 07:11:00;;;;;;;;;;;;;;;19.48;44.54;96319.55;626730;226;65280;-68
2023/12/21 07:13:27;;;;;;;;;;;;;;;19.47;44.54;96322.48;626894;226;62750;-68
2023/12/21 07:15:55;;;;;;;;;;;;;;;19.48;45.03;96329.42;626826;226;63803;-67
2023/12/21 07:18:22;;;;;;;;;;;;;;;19.46;44.28;96323.56;626808;226;65198;-68
2023/12/21 07:20:49;;;;;;;;;;;;;;;19.46;45.05;96326.23;626790;226;62698;-68
2023/12/21 07:23:17;;;;;;;;;;;;;;;19.47;44.78;96333.14;626764;226;65768;-67
2023/12/21 07:25:44;;;;;;;;;;;;;;;19.48;44.19;96345.41;626851;226;62942;-68
2023/12/21 07:28:12;;;;;;;;;;;;;;;19.50;44.15;96345.91;626800;226;62437;-68
2023/12/21 07:30:39;;;;;;;;;;;;;;;19.48;44.19;96351.53;626781;226;65473;-67
2023/12/21 07:33:07;;;;;;;;;;;;;;;19.49;44.29;96347.78;626266;226;62912;-71
2023/12/21 07:35:34;;;;;;;;;;;;;;;19.54;44.33;96359.50;626563;226;64439;-71
2023/12/21 07:38:02;;;;;;;;;;;;;;;19.53;44.46;96353.34;626857;226;65487;-69
2023/12/21 07:40:29;;;;;;;;;;;;;;;19.54;44.55;96356.83;626636;226;65302;-68
2023/12/21 07:42:57;;;;;;;;;;;;;;;19.55;44.62;96361.08;623482;226;64717;-70
2023/12/21 07:45:24;;;;;;;;;;;;;;;19.55;44.58;96364.53;624148;226;65456;-67
2023/12/21 07:47:52;;;;;;;;;;;;;;;19.56;44.53;96365.32;623091;226;65973;-67
2023/12/21 07:50:19;;;;;;;;;;;;;;;19.54;44.53;96364.83;625917;226;64810;-69
2023/12/21 07:52:48;;;;;;;;;;;;;;;19.56;44.51;96365.32;623618;226;63911;-67
2023/12/21 07:55:15;;;;;;;;;;;;;;;19.56;44.89;96360.81;620826;226;65007;-67
2023/12/21 07:57:43;;;;;;;;;;;;;;;19.55;52.09;96363.73;620608;226;64744;-67
2023/12/21 08:00:11;;;;;;;;;;;;;;;19.51;46.79;96366.96;622921;226;64117;-69
2023/12/21 08:02:44;;;;;;;;;;;;;;;19.53;45.45;96372.00;626981;226;64944;-68
2023/12/21 08:05:07;;;;;;;;;;;;;;;19.53;44.71;96369.33;626891;225;64688;-68
2023/12/21 08:07:35;;;;;;;;;;;;;;;19.54;44.99;96372.82;626962;226;65546;-68
2023/12/21 08:10:02;;;;;;;;;;;;;;;19.53;44.62;96374.66;626868;226;63216;-68
2023/12/21 08:12:30;;;;;;;;;;;;;;;19.54;44.62;96368.28;624054;226;62484;-68
2023/12/21 08:14:57;;;;;;;;;;;;;;;19.54;44.33;96365.61;621124;226;65228;-70
2023/12/21 08:17:25;;;;;;;;;;;;;;;19.59;44.38;96368.25;623927;226;64973;-66
2023/12/21 08:19:52;;;;;;;;;;;;;;;19.59;44.37;96352.26;621162;226;64718;-67
2023/12/21 08:22:20;;;;;;;;;;;;;;;19.61;44.32;96360.75;624309;226;65762;-69
2023/12/21 08:24:47;;;;;;;;;;;;;;;19.62;44.26;96348.24;622147;226;64831;-65
2023/12/21 08:27:15;;;;;;;;;;;;;;;19.61;44.30;96350.09;622526;226;64715;-66
2023/12/21 08:29:43;;;;;;;;;;;;;;;19.61;44.34;96338.63;625913;226;64844;-71
2023/12/21 08:32:11;;;;;;;;;;;;;;;19.62;45.55;96340.25;626368;226;62668;-70
2023/12/21 08:34:38;;;;;;;;;;;;;;;19.61;44.52;96338.63;624495;226;63427;-67
2023/12/21 08:37:06;;;;;;;;;;;;;;;19.65;44.45;96339.69;621762;226;61521;-68
2023/12/21 08:39:33;;;;;;;;;;;;;;;19.62;44.42;96343.70;624906;226;62909;-68
2023/12/21 08:42:01;;;;;;;;;;;;;;;19.64;44.41;96346.89;619883;226;62518;-68
2023/12/21 08:44:29;;;;;;;;;;;;;;;19.62;44.45;96343.70;619782;229;64960;-67
2023/12/21 08:46:56;;;;;;;;;;;;;;;19.62;44.48;96341.04;619857;229;64904;-68
2023/12/21 08:49:24;;;;;;;;;;;;;;;19.64;44.58;96341.56;619840;229;62449;-67
2023/12/21 08:51:53;;;;;;;;;;;;;;;19.65;44.59;96339.69;619741;229;63145;-67
2023/12/21 08:54:20;;;;;;;;;;;;;;;19.62;44.58;96335.70;619788;229;62748;-69
2023/12/21 08:56:50;;;;;;;;;;;;;;;19.62;44.59;96327.70;621899;226;62457;-68
2023/12/21 09:00:51;;;;;;;;;;;;;;;19.77;44.62;96328.69;638555;222;35505;-67
2023/12/21 09:03:19;;;;;;;;;;;;;;;19.65;44.66;96321.82;629674;224;64709;-67
2023/12/21 09:05:46;;;;;;;;;;;;;;;19.65;44.70;96324.48;629198;223;64586;-66
2023/12/21 09:08:14;;;;;;;;;;;;;;;19.66;44.74;96325.30;628900;224;64214;-67
2023/12/21 09:10:41;;;;;;;;;;;;;;;19.65;44.78;96313.82;629298;224;64564;-67
2023/12/21 09:13:09;;;;;;;;;;;;;;;19.65;44.80;96308.48;627716;224;62340;-65
2023/12/21 09:15:36;;;;;;;;;;;;;;;19.67;47.12;96303.71;631847;224;63133;-67
2023/12/21 09:18:06;;;;;;;;;;;;;;;19.64;45.07;96296.25;634198;224;62698;-67
2023/12/21 09:20:34;;;;;;;;;;;;;;;19.65;44.87;96291.70;634035;224;64242;-67
2023/12/21 09:23:01;;;;;;;;;;;;;;;19.66;44.89;96285.32;634212;224;64249;-67
2023/12/21 09:25:29;;;;;;;;;;;;;;;19.61;44.90;96280.79;634135;224;64722;-67
2023/12/21 09:27:57;;;;;;;;;;;;;;;19.63;44.81;96273.31;628754;224;62475;-67
2023/12/21 09:30:26;;;;;;;;;;;;;;;19.63;44.74;96281.31;628141;224;64359;-67
2023/12/21 09:32:53;;;;;;;;;;;;;;;19.64;44.72;96269.59;627992;226;64722;-68
2023/12/21 09:35:21;;;;;;;;;;;;;;;19.65;44.66;96265.84;627941;226;64586;-70
2023/12/21 09:37:50;;;;;;;;;;;;;;;19.63;44.65;96254.66;627981;226;64316;-68
2023/12/21 09:40:17;;;;;;;;;;;;;;;19.65;44.64;96247.18;627960;226;66053;-68
2023/12/21 09:42:46;;;;;;;;;;;;;;;19.66;44.70;96245.34;627966;226;64392;-66
2023/12/21 09:45:15;;;;;;;;;;;;;;;19.67;44.69;96247.73;627878;225;62271;-68
2023/12/21 09:47:43;;;;;;;;;;;;;;;19.66;44.72;96245.34;627990;226;62645;-68
2023/12/21 09:50:11;;;;;;;;;;;;;;;19.64;44.73;96232.27;627784;224;64588;-68
2023/12/21 09:52:39;;;;;;;;;;;;;;;19.66;44.71;96224.80;621399;227;64337;-68
2023/12/21 09:55:08;;;;;;;;;;;;;;;19.65;44.66;96231.19;624205;227;64677;-68
2023/12/21 09:57:41;;;;;;;;;;;;;;;19.65;44.69;96228.52;624079;227;64658;-68
2023/12/21 10:00:06;;;;;;;;;;;;;;;19.64;44.71;96228.80;623874;226;65133;-68
2023/12/21 10:02:35;;;;;;;;;;;;;;;19.67;44.68;96225.59;620775;228;42283;-68
2023/12/21 10:05:03;;;;;;;;;;;;;;;19.65;44.69;96212.53;617356;230;64492;-67
2023/12/21 10:07:31;;;;;;;;;;;;;;;19.65;44.69;96217.86;617447;230;64335;-67
2023/12/21 10:09:58;;;;;;;;;;;;;;;19.66;44.75;96216.80;617258;230;62475;-68
2023/12/21 10:12:26;;;;;;;;;;;;;;;19.67;44.71;96209.59;617239;230;63437;-67
2023/12/21 10:14:57;;;;;;;;;;;;;;;19.65;44.73;96207.20;617275;230;64347;-68
2023/12/21 10:17:25;;;;;;;;;;;;;;;19.63;44.64;96198.69;617146;230;62614;-68
2023/12/21 10:19:52;;;;;;;;;;;;;;;19.66;44.62;96211.47;617233;230;63107;-68
2023/12/21 10:22:21;;;;;;;;;;;;;;;19.65;44.53;96209.86;617187;230;62004;-68
2023/12/21 10:24:50;;;;;;;;;;;;;;;19.65;44.49;96212.53;617177;230;65765;-68
2023/12/21 10:27:21;;;;;;;;;;;;;;;19.65;44.42;96212.53;617217;230;62395;-68
2023/12/21 10:29:53;;;;;;;;;;;;;;;19.65;44.37;96203.74;617154;230;61944;-68
2023/12/21 10:32:21;;;;;;;;;;;;;;;19.66;44.32;96200.81;617098;230;65673;-67
2023/12/21 10:34:49;;;;;;;;;;;;;;;19.64;44.29;96197.63;617211;230;64683;-68
2023/12/21 10:37:16;;;;;;;;;;;;;;;19.65;44.27;96191.20;617275;230;64131;-72
2023/12/21 10:39:44;;;;;;;;;;;;;;;19.64;44.22;96178.97;617170;230;62463;-68
2023/12/21 10:42:13;;;;;;;;;;;;;;;19.63;44.22;96176.57;617195;230;64496;-68
2023/12/21 10:44:42;;;;;;;;;;;;;;;19.65;44.42;96177.09;616849;230;62160;-68
2023/12/21 10:47:10;;;;;;;;;;;;;;;19.64;44.95;96173.63;620689;228;64601;-69
2023/12/21 10:49:39;;;;;;;;;;;;;;;19.67;44.38;96177.61;620739;228;64239;-69
2023/12/21 10:52:06;;;;;;;;;;;;;;;19.66;44.35;96171.48;620601;228;65528;-68
2023/12/21 10:54:34;;;;;;;;;;;;;;;19.67;45.40;96165.10;620708;228;64842;-67
2023/12/21 10:57:02;;;;;;;;;;;;;;;19.66;47.18;96150.17;620497;228;62426;-68
2023/12/21 10:59:31;;;;;;;;;;;;;;;19.69;45.72;96157.59;622808;227;64183;-68
2023/12/21 11:01:59;;;;;;;;;;;;;;;19.69;45.49;96148.81;618551;229;64404;-67
2023/12/21 11:04:28;;;;;;;;;;;;;;;19.73;45.58;96144.52;618517;229;62414;-69
2023/12/21 11:06:56;;;;;;;;;;;;;;;19.73;46.38;96129.30;625630;227;64194;-68
2023/12/21 11:09:25;;;;;;;;;;;;;;;19.76;48.81;96127.16;618492;229;62398;-68
2023/12/21 11:11:57;;;;;;;;;;;;;;;19.76;47.98;96130.61;618521;229;64384;-69
2023/12/21 11:14:22;;;;;;;;;;;;;;;19.77;48.80;96124.20;625533;227;65465;-70
2023/12/21 11:16:51;;;;;;;;;;;;;;;19.77;48.93;96123.41;618538;229;64529;-70
2023/12/21 11:19:20;;;;;;;;;;;;;;;19.78;49.63;96111.66;618517;229;64602;-69
2023/12/21 11:21:47;;;;;;;;;;;;;;;19.79;49.71;96105.27;618372;229;64218;-68
2023/12/21 11:24:21;;;;;;;;;;;;;;;19.78;50.02;96104.47;625605;227;64586;-68
2023/12/21 11:26:50;;;;;;;;;;;;;;;19.78;50.63;96093.81;625660;227;64585;-67
2023/12/21 11:29:27;;;;;;;;;;;;;;;19.78;47.97;96085.81;618033;229;64355;-68
2023/12/21 11:31:55;;;;;;;;;;;;;;;19.80;48.71;96083.63;625679;227;64456;-66
2023/12/21 11:34:36;;;;;;;;;;;;;;;19.81;47.57;96081.78;625549;227;64615;-66
2023/12/21 11:37:15;;;;;;;;;;;;;;;19.81;47.63;96082.57;618045;229;62253;-67
2023/12/21 11:39:44;;;;;;;;;;;;;;;19.82;48.64;96086.03;622148;227;64807;-66
2023/12/21 11:42:12;;;;;;;;;;;;;;;19.81;47.67;96071.12;625578;227;64657;-66
2023/12/21 11:44:39;;;;;;;;;;;;;;;19.81;47.34;96066.58;625694;227;62314;-66
2023/12/21 11:47:07;;;;;;;;;;;;;;;19.83;47.59;96063.61;625606;227;64757;-66
2023/12/21 11:49:37;;;;;;;;;;;;;;;19.83;47.31;96058.27;625590;227;64411;-66
2023/12/21 11:52:05;;;;;;;;;;;;;;;19.82;48.34;96046.82;625661;227;62318;-67
2023/12/21 11:54:32;;;;;;;;;;;;;;;19.85;47.84;96046.25;625701;227;62678;-68
2023/12/21 11:57:08;;;;;;;;;;;;;;;19.85;48.17;96050.79;625649;227;64641;-68
2023/12/21 11:59:36;;;;;;;;;;;;;;;19.85;48.22;96045.45;624902;227;69344;-67
2023/12/21 12:02:07;;;;;;;;;;;;;;;19.86;48.69;96045.19;624229;227;64756;-67
2023/12/21 12:04:35;;;;;;;;;;;;;;;19.86;48.71;96037.19;624203;227;62941;-67
2023/12/21 12:07:05;;;;;;;;;;;;;;;19.83;48.59;96032.40;624249;227;62264;-68
2023/12/21 12:09:33;;;;;;;;;;;;;;;19.87;49.06;96027.31;624181;227;64848;-67
2023/12/21 12:12:01;;;;;;;;;;;;;;;19.88;47.96;96026.22;624196;227;64568;-67
2023/12/21 12:14:28;;;;;;;;;;;;;;;19.87;49.34;96008.64;624253;227;64377;-66
2023/12/21 12:16:56;;;;;;;;;;;;;;;19.88;49.08;96026.22;624238;227;62570;-67
2023/12/21 12:19:26;;;;;;;;;;;;;;;19.87;48.64;96017.43;624221;227;63249;-67
2023/12/21 12:21:54;;;;;;;;;;;;;;;19.88;49.03;96020.88;616633;230;69650;-67
2023/12/21 12:24:22;;;;;;;;;;;;;;;19.89;48.79;96027.82;624263;227;62649;-67
2023/12/21 12:26:50;;;;;;;;;;;;;;;19.88;49.07;96028.88;624227;227;62371;-67
2023/12/21 12:29:17;;;;;;;;;;;;;;;19.89;48.57;96017.94;624271;227;62361;-66
2023/12/21 12:31:45;;;;;;;;;;;;;;;19.90;49.22;96022.19;624267;227;62539;-69
2023/12/21 12:34:13;;;;;;;;;;;;;;;19.91;48.96;96028.30;623193;227;62534;-66
2023/12/21 12:36:40;;;;;;;;;;;;;;;19.88;49.25;96031.55;620572;228;62213;-66
2023/12/21 12:39:09;;;;;;;;;;;;;;;19.91;49.26;96041.64;620140;229;63465;-66
2023/12/21 12:41:37;;;;;;;;;;;;;;;19.91;48.85;96033.64;620564;228;62166;-65
2023/12/21 12:44:05;;;;;;;;;;;;;;;19.90;49.81;96038.19;627707;226;64141;-65
2023/12/21 12:46:32;;;;;;;;;;;;;;;19.92;49.31;96035.24;627692;226;64615;-66
2023/12/21 12:49:03;;;;;;;;;;;;;;;19.92;49.08;96029.91;627665;226;64608;-67
2023/12/21 12:51:30;;;;;;;;;;;;;;;19.90;48.89;96030.19;624882;225;64379;-68